Time;durP1;ratioP1;P1;durP2;ratioP2;P2;SDS_P1;SDS_P2;PMS_P1;PMS_P2;Temp;Humidity;BMP_temperature;BMP_pressure;BME280_temperature;BME280_humidity;BME280_pressure;Samples;Min_cycle;Max_cycle;Signal;HPM_P1;HPM_P2
2023/06/28 00:01:00;;;;;;;7.30;3.00;;;;;;;;;;5046778;28;20487;-64
2023/06/28 00:03:25;;;;;;;6.13;3.05;;;;;;;;;;5036138;28;20072;-65
2023/06/28 00:05:50;;;;;;;5.95;3.10;;;;;;;;;;5050367;28;20028;-65
2023/06/28 00:08:16;;;;;;;6.78;3.30;;;;;;;;;;5050798;28;20032;-65
2023/06/28 00:10:41;;;;;;;5.95;3.20;;;;;;;;;;5055273;28;20539;-64
2023/06/28 00:13:06;;;;;;;5.00;3.10;;;;;;;;;;5054693;28;20017;-65
2023/06/28 00:15:31;;;;;;;4.60;2.90;;;;;;;;;;5041138;28;20025;-65
2023/06/28 00:17:56;;;;;;;6.63;3.27;;;;;;;;;;5046999;28;20465;-63
2023/06/28 00:20:21;;;;;;;5.50;2.97;;;;;;;;;;5050168;28;20025;-65
2023/06/28 00:22:46;;;;;;;6.35;3.47;;;;;;;;;;5049574;28;20052;-64
2023/06/28 00:25:12;;;;;;;5.90;2.80;;;;;;;;;;5050526;28;20416;-64
2023/06/28 00:27:37;;;;;;;5.63;3.00;;;;;;;;;;5050324;28;20029;-65
2023/06/28 00:30:02;;;;;;;5.77;3.03;;;;;;;;;;5045514;28;20034;-64
2023/06/28 00:32:28;;;;;;;6.68;3.03;;;;;;;;;;5041209;28;20517;-65
2023/06/28 00:34:53;;;;;;;6.47;3.05;;;;;;;;;;5040663;28;20025;-65
2023/06/28 00:37:18;;;;;;;6.63;3.15;;;;;;;;;;5047744;28;20009;-66
2023/06/28 00:39:44;;;;;;;6.57;3.40;;;;;;;;;;5043578;28;20036;-64
2023/06/28 00:42:09;;;;;;;7.22;2.95;;;;;;;;;;5044781;28;20502;-64
2023/06/28 00:44:34;;;;;;;6.57;3.10;;;;;;;;;;5047686;28;20021;-66
2023/06/28 00:47:00;;;;;;;8.57;3.53;;;;;;;;;;5039982;28;20098;-64
2023/06/28 00:49:27;;;;;;;6.68;3.38;;;;;;;;;;5049987;28;20397;-63
2023/06/28 00:51:52;;;;;;;;;;;;;;;;;;5064455;28;20465;-64
2023/06/28 00:54:18;;;;;;;7.28;3.17;;;;;;;;;;5064738;28;19907;-63
2023/06/28 00:56:43;;;;;;;6.38;3.05;;;;;;;;;;5067137;28;20044;-65
2023/06/28 00:59:09;;;;;;;6.55;3.35;;;;;;;;;;5067551;28;20063;-64
2023/06/28 01:01:35;;;;;;;7.25;3.40;;;;;;;;;;5048336;28;20089;-63
2023/06/28 01:04:02;;;;;;;6.22;2.97;;;;;;;;;;5039742;28;20025;-63
2023/06/28 01:06:31;;;;;;;6.70;3.30;;;;;;;;;;5041789;28;20047;-65
2023/06/28 01:08:57;;;;;;;7.72;3.47;;;;;;;;;;5036945;28;20021;-64
2023/06/28 01:11:22;;;;;;;4.70;2.78;;;;;;;;;;5040784;28;20131;-64
2023/06/28 01:13:47;;;;;;;6.43;3.13;;;;;;;;;;5046387;28;20104;-65
2023/06/28 01:16:12;;;;;;;5.32;3.20;;;;;;;;;;5041434;28;20027;-64
2023/06/28 01:18:37;;;;;;;5.60;2.50;;;;;;;;;;5039018;28;20056;-64
2023/06/28 01:21:05;;;;;;;6.40;2.83;;;;;;;;;;5040381;28;20041;-65
2023/06/28 01:23:31;;;;;;;8.00;2.85;;;;;;;;;;5043672;28;20525;-66
2023/06/28 01:26:02;;;;;;;5.90;3.00;;;;;;;;;;5044851;28;20033;-65
2023/06/28 01:28:28;;;;;;;8.50;2.92;;;;;;;;;;5045251;28;20092;-67
2023/06/28 01:30:54;;;;;;;7.03;3.28;;;;;;;;;;5039337;28;20172;-65
2023/06/28 01:33:19;;;;;;;7.40;2.67;;;;;;;;;;5031010;28;20024;-66
2023/06/28 01:35:45;;;;;;;10.98;3.05;;;;;;;;;;5038502;28;20021;-63
2023/06/28 01:38:11;;;;;;;7.60;2.90;;;;;;;;;;5041054;28;20024;-64
2023/06/28 01:40:37;;;;;;;10.38;3.20;;;;;;;;;;5044484;28;20041;-64
2023/06/28 01:43:05;;;;;;;8.77;2.83;;;;;;;;;;5046000;28;20484;-65
2023/06/28 01:45:30;;;;;;;6.57;2.72;;;;;;;;;;5043797;28;20014;-63
2023/06/28 01:47:55;;;;;;;6.18;2.58;;;;;;;;;;5037312;28;20033;-64
2023/06/28 01:50:21;;;;;;;6.30;2.60;;;;;;;;;;5042621;28;20017;-64
2023/06/28 01:52:46;;;;;;;8.43;2.90;;;;;;;;;;5036830;28;20041;-66
2023/06/28 01:55:11;;;;;;;6.23;2.47;;;;;;;;;;5049266;28;20076;-65
2023/06/28 01:57:36;;;;;;;6.22;2.70;;;;;;;;;;5044610;28;20451;-65
2023/06/28 02:00:07;;;;;;;6.15;3.00;;;;;;;;;;5043937;28;20095;-65
2023/06/28 02:02:33;;;;;;;6.00;2.80;;;;;;;;;;5040164;28;20020;-64
2023/06/28 02:04:58;;;;;;;5.45;2.75;;;;;;;;;;5041239;28;20389;-63
2023/06/28 02:07:23;;;;;;;4.68;2.30;;;;;;;;;;5038579;28;20108;-64
2023/06/28 02:09:48;;;;;;;6.18;2.60;;;;;;;;;;5044386;28;20033;-64
2023/06/28 02:12:13;;;;;;;5.15;2.65;;;;;;;;;;5031725;28;20408;-65
2023/06/28 02:14:39;;;;;;;6.88;2.40;;;;;;;;;;5047762;28;20099;-65
2023/06/28 02:17:04;;;;;;;6.00;2.55;;;;;;;;;;5044159;28;20026;-64
2023/06/28 02:19:33;;;;;;;6.73;2.60;;;;;;;;;;5048746;28;20095;-64
2023/06/28 02:21:58;;;;;;;5.55;2.38;;;;;;;;;;5050129;28;20447;-64
2023/06/28 02:24:23;;;;;;;6.00;2.75;;;;;;;;;;5053191;28;20380;-63
2023/06/28 02:26:49;;;;;;;6.15;2.53;;;;;;;;;;5045470;28;20029;-63
2023/06/28 02:29:14;;;;;;;7.28;2.83;;;;;;;;;;5052557;28;20021;-65
2023/06/28 02:31:39;;;;;;;7.70;2.20;;;;;;;;;;5044646;28;20025;-64
2023/06/28 02:34:04;;;;;;;6.82;2.50;;;;;;;;;;5049940;28;20032;-65
2023/06/28 02:36:29;;;;;;;9.23;2.70;;;;;;;;;;5048306;28;20013;-65
2023/06/28 02:38:55;;;;;;;7.00;2.40;;;;;;;;;;5041526;28;20109;-64
2023/06/28 02:41:20;;;;;;;6.40;2.57;;;;;;;;;;5048546;28;20044;-65
2023/06/28 02:43:45;;;;;;;7.32;2.30;;;;;;;;;;5047715;28;20086;-65
2023/06/28 02:46:10;;;;;;;6.30;2.20;;;;;;;;;;5050347;28;20079;-64
2023/06/28 02:48:35;;;;;;;8.05;2.25;;;;;;;;;;5051898;28;20489;-63
2023/06/28 02:51:00;;;;;;;6.18;2.38;;;;;;;;;;5052229;28;20052;-64
2023/06/28 02:53:25;;;;;;;6.30;2.60;;;;;;;;;;5045104;28;20079;-63
2023/06/28 02:55:50;;;;;;;5.25;2.28;;;;;;;;;;5051026;28;20025;-65
2023/06/28 02:58:16;;;;;;;6.65;2.33;;;;;;;;;;5034757;28;20049;-64
2023/06/28 03:00:44;;;;;;;7.13;2.60;;;;;;;;;;5045259;28;20079;-64
2023/06/28 03:03:09;;;;;;;6.95;2.00;;;;;;;;;;5045582;28;20017;-65
2023/06/28 03:05:34;;;;;;;9.13;2.63;;;;;;;;;;5053531;28;20365;-65
2023/06/28 03:07:59;;;;;;;6.07;2.33;;;;;;;;;;5051775;28;20451;-64
2023/06/28 03:10:24;;;;;;;5.80;2.65;;;;;;;;;;5050705;28;20369;-66
2023/06/28 03:12:49;;;;;;;5.80;2.60;;;;;;;;;;5052425;28;20520;-66
2023/06/28 03:15:15;;;;;;;6.07;2.47;;;;;;;;;;5040273;28;20021;-63
2023/06/28 03:17:40;;;;;;;8.05;2.65;;;;;;;;;;5048034;28;20025;-64
2023/06/28 03:20:05;;;;;;;7.28;2.55;;;;;;;;;;5036199;28;20041;-65
2023/06/28 03:22:30;;;;;;;5.88;2.60;;;;;;;;;;5044704;28;20113;-65
2023/06/28 03:24:56;;;;;;;7.95;2.80;;;;;;;;;;5057521;28;20016;-65
2023/06/28 03:27:21;;;;;;;5.10;2.55;;;;;;;;;;5060995;28;20087;-65
2023/06/28 03:29:46;;;;;;;8.10;2.55;;;;;;;;;;5059726;28;20491;-63
2023/06/28 03:32:11;;;;;;;8.35;2.70;;;;;;;;;;5048756;28;20037;-63
2023/06/28 03:34:36;;;;;;;7.97;2.70;;;;;;;;;;5052407;28;20017;-64
2023/06/28 03:37:02;;;;;;;5.95;2.40;;;;;;;;;;5052804;28;20096;-65
2023/06/28 03:39:27;;;;;;;6.40;2.80;;;;;;;;;;5046876;28;20476;-64
2023/06/28 03:41:52;;;;;;;6.38;2.60;;;;;;;;;;5052643;28;20017;-63
2023/06/28 03:44:17;;;;;;;6.95;2.38;;;;;;;;;;5052276;28;20503;-65
2023/06/28 03:46:43;;;;;;;5.45;2.50;;;;;;;;;;5050216;28;20094;-63
2023/06/28 03:49:08;;;;;;;7.13;2.53;;;;;;;;;;5050941;28;20025;-65
2023/06/28 03:51:33;;;;;;;8.33;2.13;;;;;;;;;;5052263;28;20013;-64
2023/06/28 03:53:58;;;;;;;7.75;2.70;;;;;;;;;;5053618;28;20036;-65
2023/06/28 03:56:23;;;;;;;6.67;2.77;;;;;;;;;;5046783;28;20032;-65
2023/06/28 03:58:50;;;;;;;8.00;2.75;;;;;;;;;;5052106;28;20444;-64
2023/06/28 04:01:15;;;;;;;10.85;2.95;;;;;;;;;;5057897;28;20036;-64
2023/06/28 04:03:41;;;;;;;6.17;2.10;;;;;;;;;;5049346;28;20012;-65
2023/06/28 04:06:06;;;;;;;5.95;2.58;;;;;;;;;;5051815;28;20431;-64
2023/06/28 04:08:31;;;;;;;5.97;1.90;;;;;;;;;;5052202;28;20496;-65
2023/06/28 04:10:56;;;;;;;7.10;2.17;;;;;;;;;;5052228;28;20017;-65
2023/06/28 04:13:21;;;;;;;6.87;2.10;;;;;;;;;;5051508;28;20048;-64
2023/06/28 04:15:46;;;;;;;7.33;1.90;;;;;;;;;;5049937;28;20021;-65
2023/06/28 04:18:11;;;;;;;7.60;2.10;;;;;;;;;;5050845;28;20100;-64
2023/06/28 04:20:37;;;;;;;7.05;2.28;;;;;;;;;;5048970;28;20092;-65
2023/06/28 04:23:02;;;;;;;6.72;2.30;;;;;;;;;;5038587;28;20473;-63
2023/06/28 04:25:27;;;;;;;6.90;1.98;;;;;;;;;;5038695;28;20049;-66
2023/06/28 04:27:52;;;;;;;8.10;2.30;;;;;;;;;;5042320;28;20021;-65
2023/06/28 04:30:17;;;;;;;7.57;1.97;;;;;;;;;;5050002;28;20071;-63
2023/06/28 04:32:44;;;;;;;9.07;1.97;;;;;;;;;;5031509;28;20017;-65
2023/06/28 04:35:10;;;;;;;8.88;2.13;;;;;;;;;;5040904;28;20027;-62
2023/06/28 04:37:39;;;;;;;8.60;2.00;;;;;;;;;;5036409;28;20097;-66
2023/06/28 04:40:05;;;;;;;9.50;2.85;;;;;;;;;;5039218;28;20065;-65
2023/06/28 04:42:30;;;;;;;8.65;2.20;;;;;;;;;;5030923;28;20053;-64
2023/06/28 04:44:59;;;;;;;8.10;2.20;;;;;;;;;;5040454;28;20480;-63
2023/06/28 04:47:26;;;;;;;6.38;2.08;;;;;;;;;;5039735;28;20105;-64
2023/06/28 04:49:51;;;;;;;7.97;2.38;;;;;;;;;;5046337;28;20091;-63
2023/06/28 04:52:18;;;;;;;6.20;1.80;;;;;;;;;;5038850;28;20025;-64
2023/06/28 04:54:44;;;;;;;7.68;2.30;;;;;;;;;;5027877;28;20025;-64
2023/06/28 04:57:09;;;;;;;6.72;2.20;;;;;;;;;;5039069;28;20219;-62
2023/06/28 04:59:34;;;;;;;5.43;2.13;;;;;;;;;;5037160;28;20500;-63
2023/06/28 05:02:03;;;;;;;6.70;2.00;;;;;;;;;;5031309;28;20040;-63
2023/06/28 05:04:28;;;;;;;10.18;2.53;;;;;;;;;;5046774;28;20104;-64
2023/06/28 05:06:53;;;;;;;6.43;1.95;;;;;;;;;;5030872;28;20108;-65
2023/06/28 05:09:19;;;;;;;8.57;2.20;;;;;;;;;;5027481;28;20029;-65
2023/06/28 05:11:44;;;;;;;8.82;2.33;;;;;;;;;;5027890;28;20044;-63
2023/06/28 05:14:09;;;;;;;8.25;2.58;;;;;;;;;;5028288;28;20488;-64
2023/06/28 05:16:35;;;;;;;8.43;2.07;;;;;;;;;;5029704;28;20112;-64
2023/06/28 05:19:00;;;;;;;6.97;2.00;;;;;;;;;;5040795;28;20087;-65
2023/06/28 05:21:25;;;;;;;7.53;2.20;;;;;;;;;;5043909;28;20387;-65
2023/06/28 05:23:50;;;;;;;8.00;2.08;;;;;;;;;;5047104;28;20395;-63
2023/06/28 05:26:15;;;;;;;10.68;2.28;;;;;;;;;;5032527;28;20036;-65
2023/06/28 05:28:40;;;;;;;7.03;2.35;;;;;;;;;;5045065;28;20082;-64
2023/06/28 05:31:06;;;;;;;6.50;1.65;;;;;;;;;;5049491;28;20484;-65
2023/06/28 05:33:31;;;;;;;8.23;1.83;;;;;;;;;;5049757;28;20025;-65
2023/06/28 05:35:56;;;;;;;7.70;2.30;;;;;;;;;;5043279;28;20501;-65
2023/06/28 05:38:21;;;;;;;6.70;1.80;;;;;;;;;;5036664;28;20030;-64
2023/06/28 05:40:47;;;;;;;9.07;2.03;;;;;;;;;;5045922;28;20044;-65
2023/06/28 05:43:12;;;;;;;6.50;2.05;;;;;;;;;;5050434;28;20028;-65
2023/06/28 05:45:37;;;;;;;9.70;2.37;;;;;;;;;;5049246;28;20013;-63
2023/06/28 05:48:02;;;;;;;13.07;2.13;;;;;;;;;;5042810;28;20025;-66
2023/06/28 05:50:27;;;;;;;6.80;2.10;;;;;;;;;;5032709;28;20104;-65
2023/06/28 05:52:53;;;;;;;10.43;2.40;;;;;;;;;;5030740;28;20496;-64
2023/06/28 05:55:18;;;;;;;8.23;1.70;;;;;;;;;;5040840;28;20024;-64
2023/06/28 05:57:44;;;;;;;8.93;1.80;;;;;;;;;;5055131;28;20025;-64
2023/06/28 06:00:10;;;;;;;7.78;1.70;;;;;;;;;;5038634;28;20025;-65
2023/06/28 06:02:35;;;;;;;7.95;1.73;;;;;;;;;;5043803;28;20018;-63
2023/06/28 06:05:01;;;;;;;7.45;1.70;;;;;;;;;;5044417;28;20027;-65
2023/06/28 06:07:27;;;;;;;8.18;2.08;;;;;;;;;;5047045;28;20052;-67
2023/06/28 06:09:53;;;;;;;6.53;2.00;;;;;;;;;;5037386;28;20071;-65
2023/06/28 06:12:18;;;;;;;;;;;;;;;;;;5033206;28;20025;-66
2023/06/28 06:14:43;;;;;;;13.48;1.90;;;;;;;;;;5043819;28;19970;-66
2023/06/28 06:17:09;;;;;;;8.68;1.83;;;;;;;;;;5035115;28;20109;-66
2023/06/28 06:19:34;;;;;;;7.43;1.60;;;;;;;;;;5034292;28;20038;-65
2023/06/28 06:21:59;;;;;;;7.43;2.00;;;;;;;;;;5034016;28;20014;-67
2023/06/28 06:24:24;;;;;;;6.93;1.60;;;;;;;;;;5046705;28;20112;-65
2023/06/28 06:26:49;;;;;;;8.50;1.85;;;;;;;;;;5033588;28;20555;-67
2023/06/28 06:29:14;;;;;;;7.65;1.98;;;;;;;;;;5051093;28;20017;-64
2023/06/28 06:31:39;;;;;;;6.17;1.70;;;;;;;;;;5053160;28;20060;-64
2023/06/28 06:34:05;;;;;;;7.60;1.90;;;;;;;;;;5053627;28;20640;-66
2023/06/28 06:36:30;;;;;;;6.07;1.67;;;;;;;;;;5045294;28;20023;-65
2023/06/28 06:38:55;;;;;;;9.73;1.98;;;;;;;;;;5033767;28;20026;-65
2023/06/28 06:41:21;;;;;;;7.97;1.80;;;;;;;;;;5033044;28;20026;-65
2023/06/28 06:43:46;;;;;;;6.72;1.58;;;;;;;;;;5039870;28;20025;-67
2023/06/28 06:46:11;;;;;;;6.57;1.57;;;;;;;;;;5033309;28;20143;-65
2023/06/28 06:48:37;;;;;;;4.45;1.52;;;;;;;;;;5033507;28;20013;-64
2023/06/28 06:51:04;;;;;;;6.53;1.55;;;;;;;;;;5031908;28;20083;-64
2023/06/28 06:53:29;;;;;;;7.10;1.45;;;;;;;;;;5036733;28;20100;-64
2023/06/28 06:55:55;;;;;;;6.50;1.30;;;;;;;;;;5038920;28;20100;-62
2023/06/28 06:58:20;;;;;;;7.15;1.20;;;;;;;;;;5045641;28;20021;-63
2023/06/28 07:00:46;;;;;;;7.82;1.60;;;;;;;;;;5043564;28;20784;-64
2023/06/28 07:03:12;;;;;;;3.80;1.10;;;;;;;;;;5053064;28;20036;-63
2023/06/28 07:05:37;;;;;;;8.50;1.33;;;;;;;;;;5046783;28;20029;-64
2023/06/28 07:08:02;;;;;;;7.83;1.40;;;;;;;;;;5033272;28;20022;-66
2023/06/28 07:10:27;;;;;;;6.27;1.40;;;;;;;;;;5033355;28;20031;-65
2023/06/28 07:12:52;;;;;;;7.03;1.50;;;;;;;;;;5032984;28;20377;-63
2023/06/28 07:15:17;;;;;;;7.40;1.40;;;;;;;;;;5049960;28;20091;-64
2023/06/28 07:17:42;;;;;;;5.80;1.20;;;;;;;;;;5052989;28;20037;-62
2023/06/28 07:20:09;;;;;;;7.03;1.58;;;;;;;;;;5052996;28;20028;-64
2023/06/28 07:22:34;;;;;;;4.90;1.30;;;;;;;;;;5052646;28;20041;-64
2023/06/28 07:25:02;;;;;;;7.07;1.40;;;;;;;;;;5053947;28;20017;-62
2023/06/28 07:27:28;;;;;;;5.68;1.20;;;;;;;;;;5051435;28;20029;-63
2023/06/28 07:29:53;;;;;;;4.83;1.10;;;;;;;;;;5053159;28;20048;-62
2023/06/28 07:32:20;;;;;;;5.93;1.58;;;;;;;;;;5050932;28;20032;-64
2023/06/28 07:34:45;;;;;;;5.43;1.23;;;;;;;;;;5052007;28;20028;-63
2023/06/28 07:37:10;;;;;;;7.65;1.65;;;;;;;;;;5053619;28;20482;-63
2023/06/28 07:39:35;;;;;;;6.57;1.47;;;;;;;;;;5053769;28;20033;-62
2023/06/28 07:42:01;;;;;;;7.93;1.33;;;;;;;;;;5052368;28;20032;-63
2023/06/28 07:44:26;;;;;;;6.78;1.40;;;;;;;;;;5052390;28;20024;-64
2023/06/28 07:46:51;;;;;;;5.15;1.27;;;;;;;;;;5050979;28;20025;-62
2023/06/28 07:49:16;;;;;;;6.03;1.30;;;;;;;;;;5052686;28;20064;-64
2023/06/28 07:51:41;;;;;;;5.80;1.23;;;;;;;;;;5049407;28;20119;-62
2023/06/28 07:54:08;;;;;;;4.57;1.20;;;;;;;;;;5052003;28;20032;-63
2023/06/28 07:56:33;;;;;;;5.20;1.33;;;;;;;;;;5052311;28;20120;-64
2023/06/28 07:59:01;;;;;;;7.32;1.45;;;;;;;;;;5052678;28;20090;-65
2023/06/28 08:01:26;;;;;;;7.40;1.45;;;;;;;;;;5053249;28;20472;-63
2023/06/28 08:03:51;;;;;;;5.72;1.20;;;;;;;;;;5051731;28;20090;-63
2023/06/28 08:06:16;;;;;;;5.33;1.50;;;;;;;;;;5048235;28;20369;-63
2023/06/28 08:08:41;;;;;;;7.65;1.48;;;;;;;;;;5052847;28;20435;-62
2023/06/28 08:11:06;;;;;;;6.25;1.27;;;;;;;;;;5062256;28;20476;-63
2023/06/28 08:13:32;;;;;;;4.78;1.20;;;;;;;;;;5072992;28;20034;-64
2023/06/28 08:15:57;;;;;;;6.00;1.08;;;;;;;;;;5077682;28;20074;-63
2023/06/28 08:18:22;;;;;;;4.65;1.20;;;;;;;;;;5076061;28;20598;-64
2023/06/28 08:20:47;;;;;;;5.10;1.27;;;;;;;;;;5051035;28;20037;-62
2023/06/28 08:23:13;;;;;;;4.70;1.10;;;;;;;;;;5059633;28;20012;-64
2023/06/28 08:25:39;;;;;;;5.28;1.10;;;;;;;;;;5056043;28;20013;-63
2023/06/28 08:28:04;;;;;;;5.63;1.20;;;;;;;;;;5054816;28;20028;-65
2023/06/28 08:30:29;;;;;;;5.10;1.35;;;;;;;;;;5040963;28;20017;-63
2023/06/28 08:32:54;;;;;;;5.63;1.30;;;;;;;;;;5047868;28;20028;-62
2023/06/28 08:35:20;;;;;;;4.85;1.23;;;;;;;;;;5051743;28;20425;-61
2023/06/28 08:37:45;;;;;;;5.68;1.20;;;;;;;;;;5052482;28;20025;-64
2023/06/28 08:40:10;;;;;;;6.45;1.55;;;;;;;;;;5051892;28;20029;-64
2023/06/28 08:42:38;;;;;;;6.15;1.33;;;;;;;;;;5051911;28;20404;-64
2023/06/28 08:45:04;;;;;;;6.28;1.08;;;;;;;;;;5049718;28;20017;-63
2023/06/28 08:47:30;;;;;;;6.18;1.70;;;;;;;;;;5052442;28;20021;-63
2023/06/28 08:49:55;;;;;;;;;;;;;;;;;;5052919;28;20465;-64
2023/06/28 08:52:22;;;;;;;5.70;1.25;;;;;;;;;;5050631;28;20380;-64
2023/06/28 08:54:47;;;;;;;5.85;1.35;;;;;;;;;;5051205;28;20099;-63
2023/06/28 08:57:13;;;;;;;4.03;1.13;;;;;;;;;;5051308;28;20108;-64
2023/06/28 08:59:38;;;;;;;4.43;1.27;;;;;;;;;;5043062;28;20045;-64
2023/06/28 09:02:04;;;;;;;6.10;1.30;;;;;;;;;;5050704;28;20472;-65
2023/06/28 09:04:29;;;;;;;4.88;1.40;;;;;;;;;;5042094;28;20048;-65
2023/06/28 09:06:55;;;;;;;5.03;1.30;;;;;;;;;;5045364;28;20096;-63
2023/06/28 09:09:21;;;;;;;6.00;1.25;;;;;;;;;;5045002;28;20440;-63
2023/06/28 09:11:46;;;;;;;7.38;1.65;;;;;;;;;;5044913;28;20503;-63
2023/06/28 09:14:12;;;;;;;5.10;1.38;;;;;;;;;;5050281;28;20028;-64
2023/06/28 09:16:37;;;;;;;5.03;1.60;;;;;;;;;;5043309;28;20447;-63
2023/06/28 09:19:02;;;;;;;5.88;1.30;;;;;;;;;;5050804;28;20039;-64
2023/06/28 09:21:28;;;;;;;6.63;1.30;;;;;;;;;;5050650;28;20041;-65
2023/06/28 09:23:54;;;;;;;5.70;1.30;;;;;;;;;;5050578;28;20392;-62
2023/06/28 09:26:19;;;;;;;6.95;1.30;;;;;;;;;;5046184;28;20017;-64
2023/06/28 09:28:44;;;;;;;5.53;1.87;;;;;;;;;;5051141;28;20059;-63
2023/06/28 09:31:09;;;;;;;7.60;1.70;;;;;;;;;;5050138;28;20488;-64
2023/06/28 09:33:34;;;;;;;6.03;1.50;;;;;;;;;;5041392;28;20022;-63
2023/06/28 09:36:01;;;;;;;6.03;1.40;;;;;;;;;;5048230;28;20025;-62
2023/06/28 09:38:26;;;;;;;3.72;1.27;;;;;;;;;;5044632;28;20032;-63
2023/06/28 09:40:55;;;;;;;6.25;1.60;;;;;;;;;;5050534;28;20028;-63
2023/06/28 09:43:21;;;;;;;4.80;1.40;;;;;;;;;;5049942;28;20325;-64
2023/06/28 09:45:47;;;;;;;6.10;1.25;;;;;;;;;;5048337;28;20021;-64
2023/06/28 09:48:12;;;;;;;4.75;1.27;;;;;;;;;;5030512;28;20018;-64
2023/06/28 09:50:37;;;;;;;7.75;1.38;;;;;;;;;;5043817;28;20020;-63
2023/06/28 09:53:19;;;;;;;5.67;1.40;;;;;;;;;;5038457;28;20037;-64
2023/06/28 09:55:45;;;;;;;5.05;1.15;;;;;;;;;;5050011;28;20978;-64
2023/06/28 09:58:13;;;;;;;6.28;1.20;;;;;;;;;;5050444;28;20013;-63
2023/06/28 10:00:39;;;;;;;5.97;1.13;;;;;;;;;;5050623;28;20053;-65
2023/06/28 10:03:06;;;;;;;6.65;1.30;;;;;;;;;;5049920;28;20024;-64
2023/06/28 10:05:32;;;;;;;5.22;1.08;;;;;;;;;;5048469;28;20106;-64
2023/06/28 10:07:58;;;;;;;5.82;1.50;;;;;;;;;;5050418;28;20044;-65
2023/06/28 10:10:24;;;;;;;6.55;1.20;;;;;;;;;;5049032;28;20032;-63
2023/06/28 10:12:51;;;;;;;4.80;1.25;;;;;;;;;;5049463;28;20025;-64
2023/06/28 10:15:19;;;;;;;8.02;1.40;;;;;;;;;;5050451;28;20465;-64
2023/06/28 10:17:45;;;;;;;5.38;1.42;;;;;;;;;;5046336;28;20144;-63
2023/06/28 10:20:10;;;;;;;5.88;1.55;;;;;;;;;;5048585;28;20100;-65
2023/06/28 10:22:36;;;;;;;8.40;1.53;;;;;;;;;;5039875;28;20108;-64
2023/06/28 10:25:02;;;;;;;6.05;1.30;;;;;;;;;;5050045;28;20024;-63
2023/06/28 10:27:28;;;;;;;4.93;1.20;;;;;;;;;;5044563;28;20025;-64
2023/06/28 10:29:53;;;;;;;5.53;1.30;;;;;;;;;;5050506;28;20127;-63
2023/06/28 10:32:19;;;;;;;6.63;1.30;;;;;;;;;;5051202;28;20106;-64
2023/06/28 10:34:45;;;;;;;7.05;1.40;;;;;;;;;;5041753;28;20022;-63
2023/06/28 10:37:11;;;;;;;4.47;1.10;;;;;;;;;;5050830;28;20078;-62
2023/06/28 10:39:37;;;;;;;3.88;1.20;;;;;;;;;;5052290;28;20480;-62
2023/06/28 10:42:02;;;;;;;5.82;1.20;;;;;;;;;;5046468;28;20024;-63
2023/06/28 10:44:27;;;;;;;5.18;1.40;;;;;;;;;;5056092;28;20028;-62
2023/06/28 10:47:09;;;;;;;5.90;1.23;;;;;;;;;;5058041;28;20047;-62
2023/06/28 10:49:34;;;;;;;4.88;1.40;;;;;;;;;;5057338;28;20013;-64
2023/06/28 10:52:00;;;;;;;5.03;1.17;;;;;;;;;;5055774;28;20021;-61
2023/06/28 10:54:25;;;;;;;4.80;1.15;;;;;;;;;;5051574;28;20028;-64
2023/06/28 10:56:50;;;;;;;8.90;1.67;;;;;;;;;;5047044;28;20479;-63
2023/06/28 10:59:16;;;;;;;5.10;1.30;;;;;;;;;;5055591;28;20078;-63
2023/06/28 11:01:51;;;;;;;4.43;1.10;;;;;;;;;;5054611;28;20425;-66
2023/06/28 11:04:16;;;;;;;4.82;1.30;;;;;;;;;;5048790;28;20013;-63
2023/06/28 11:06:41;;;;;;;5.70;1.30;;;;;;;;;;5053299;28;20070;-63
2023/06/28 11:09:14;;;;;;;6.07;1.17;;;;;;;;;;5053464;28;20524;-61
2023/06/28 11:11:41;;;;;;;3.88;1.05;;;;;;;;;;5046830;28;20167;-64
2023/06/28 11:14:16;;;;;;;7.93;1.10;;;;;;;;;;5052731;28;20036;-63
2023/06/28 11:16:41;;;;;;;4.70;1.10;;;;;;;;;;5053247;28;20025;-63
2023/06/28 11:19:13;;;;;;;5.60;1.30;;;;;;;;;;5052879;28;20582;-62
2023/06/28 11:21:38;;;;;;;4.22;1.00;;;;;;;;;;5053215;28;20094;-63
2023/06/28 11:24:03;;;;;;;4.50;1.30;;;;;;;;;;5045924;28;20428;-64
2023/06/28 11:26:36;;;;;;;6.03;1.20;;;;;;;;;;5051864;28;20013;-64
2023/06/28 11:29:13;;;;;;;5.80;1.20;;;;;;;;;;5052970;28;20017;-63
2023/06/28 11:31:42;;;;;;;6.47;1.25;;;;;;;;;;5046024;28;20024;-63
2023/06/28 11:34:10;;;;;;;5.30;1.35;;;;;;;;;;5052353;28;20014;-61
2023/06/28 11:36:36;;;;;;;3.88;1.20;;;;;;;;;;5052776;28;20476;-63
2023/06/28 11:39:01;;;;;;;5.45;1.30;;;;;;;;;;5053246;28;20032;-64
2023/06/28 11:41:27;;;;;;;3.85;1.00;;;;;;;;;;5052477;28;20028;-62
2023/06/28 11:43:52;;;;;;;5.55;1.20;;;;;;;;;;5050841;28;20025;-62
2023/06/28 11:46:18;;;;;;;6.10;1.40;;;;;;;;;;5043364;28;20064;-63
2023/06/28 11:48:44;;;;;;;4.60;1.10;;;;;;;;;;5052576;28;20492;-65
2023/06/28 11:51:09;;;;;;;4.15;1.20;;;;;;;;;;5052610;28;20036;-65
2023/06/28 11:53:34;;;;;;;4.33;1.20;;;;;;;;;;5051124;28;20021;-64
2023/06/28 11:55:59;;;;;;;7.55;1.00;;;;;;;;;;5052582;28;20502;-63
2023/06/28 11:58:28;;;;;;;4.13;0.97;;;;;;;;;;5050506;28;20025;-62
2023/06/28 12:00:53;;;;;;;4.57;1.10;;;;;;;;;;5044595;28;20030;-63
2023/06/28 12:03:38;;;;;;;6.28;1.23;;;;;;;;;;5031907;28;20021;-63
2023/06/28 12:06:09;;;;;;;2.92;1.00;;;;;;;;;;5032409;28;20030;-64
2023/06/28 12:08:35;;;;;;;5.47;1.10;;;;;;;;;;5032667;28;20076;-64
2023/06/28 12:11:01;;;;;;;3.80;1.13;;;;;;;;;;5032364;28;20014;-63
2023/06/28 12:13:27;;;;;;;7.18;1.10;;;;;;;;;;5032953;28;20388;-64
2023/06/28 12:15:54;;;;;;;4.45;1.25;;;;;;;;;;5045654;28;20029;-64
2023/06/28 12:18:19;;;;;;;4.22;1.15;;;;;;;;;;5044145;28;20017;-64
2023/06/28 12:20:44;;;;;;;3.97;1.20;;;;;;;;;;5049916;28;20033;-62
2023/06/28 12:23:12;;;;;;;4.20;1.05;;;;;;;;;;5051076;28;20032;-63
2023/06/28 12:25:44;;;;;;;4.80;1.00;;;;;;;;;;5051949;28;20028;-63
2023/06/28 12:28:12;;;;;;;4.50;1.13;;;;;;;;;;5049693;28;20032;-62
2023/06/28 12:30:37;;;;;;;3.45;0.90;;;;;;;;;;5043170;28;20049;-63
2023/06/28 12:33:09;;;;;;;5.10;1.08;;;;;;;;;;5054579;28;20059;-63
2023/06/28 12:35:35;;;;;;;4.07;1.17;;;;;;;;;;5044756;28;20044;-61
2023/06/28 12:38:02;;;;;;;4.25;1.00;;;;;;;;;;5050555;28;20468;-63
2023/06/28 12:40:28;;;;;;;3.88;0.93;;;;;;;;;;5054961;28;20063;-64
2023/06/28 12:43:12;;;;;;;3.03;0.95;;;;;;;;;;5047867;28;20403;-62
2023/06/28 12:45:50;;;;;;;4.53;0.90;;;;;;;;;;5046312;28;20480;-64
2023/06/28 12:48:16;;;;;;;5.60;1.88;;;;;;;;;;5043993;28;20449;-63
2023/06/28 12:50:42;;;;;;;5.18;1.02;;;;;;;;;;5052254;28;20028;-63
2023/06/28 12:53:07;;;;;;;4.43;1.05;;;;;;;;;;5046407;28;20047;-65
2023/06/28 12:55:32;;;;;;;5.43;1.20;;;;;;;;;;5043680;28;20498;-61
2023/06/28 12:57:57;;;;;;;5.53;1.03;;;;;;;;;;5045270;28;20063;-63
2023/06/28 13:00:24;;;;;;;4.40;0.93;;;;;;;;;;5030766;28;20112;-63
2023/06/28 13:02:49;;;;;;;4.50;1.17;;;;;;;;;;5040019;28;20017;-63
2023/06/28 13:05:14;;;;;;;3.90;1.07;;;;;;;;;;5049061;28;20062;-61
2023/06/28 13:07:40;;;;;;;5.07;1.20;;;;;;;;;;5037144;28;20096;-63
2023/06/28 13:10:05;;;;;;;4.85;1.00;;;;;;;;;;5048852;28;20032;-64
2023/06/28 13:12:30;;;;;;;3.35;1.10;;;;;;;;;;5048997;28;20017;-64
2023/06/28 13:14:55;;;;;;;3.97;1.20;;;;;;;;;;5042074;28;20462;-62
2023/06/28 13:17:21;;;;;;;4.40;0.82;;;;;;;;;;5037680;28;20083;-62
2023/06/28 13:19:46;;;;;;;4.57;0.90;;;;;;;;;;5031313;28;20029;-63
2023/06/28 13:22:11;;;;;;;4.20;1.00;;;;;;;;;;5039488;28;20028;-63
2023/06/28 13:24:36;;;;;;;4.07;1.17;;;;;;;;;;5049158;28;20063;-63
2023/06/28 13:27:02;;;;;;;5.60;1.15;;;;;;;;;;5046905;28;20020;-64
2023/06/28 13:29:27;;;;;;;5.83;1.03;;;;;;;;;;5055067;28;20024;-61
2023/06/28 13:31:52;;;;;;;4.25;1.10;;;;;;;;;;5047184;28;20522;-63
2023/06/28 13:34:18;;;;;;;5.00;1.23;;;;;;;;;;5052533;28;20055;-62
2023/06/28 13:36:43;;;;;;;5.63;1.10;;;;;;;;;;5044213;28;20048;-63
2023/06/28 13:39:09;;;;;;;5.88;1.00;;;;;;;;;;5054379;28;20104;-63
2023/06/28 13:41:34;;;;;;;3.75;0.88;;;;;;;;;;5051834;28;20477;-64
2023/06/28 13:43:59;;;;;;;4.82;1.10;;;;;;;;;;5051076;28;20477;-64
2023/06/28 13:46:24;;;;;;;3.03;1.00;;;;;;;;;;5049103;28;20032;-64
2023/06/28 13:48:49;;;;;;;6.88;1.23;;;;;;;;;;5030757;28;20025;-63
2023/06/28 13:51:14;;;;;;;3.90;1.00;;;;;;;;;;5038876;28;20029;-63
2023/06/28 13:53:40;;;;;;;3.70;1.05;;;;;;;;;;5055951;28;20484;-64
2023/06/28 13:56:06;;;;;;;6.32;1.30;;;;;;;;;;5046355;28;20452;-65
2023/06/28 13:58:31;;;;;;;7.45;1.30;;;;;;;;;;5042838;28;20018;-62
2023/06/28 14:00:56;;;;;;;4.70;1.13;;;;;;;;;;5041005;28;20025;-64
2023/06/28 14:03:24;;;;;;;5.57;1.08;;;;;;;;;;5051639;28;20456;-63
2023/06/28 14:05:50;;;;;;;4.90;0.90;;;;;;;;;;5046909;28;20060;-61
2023/06/28 14:08:15;;;;;;;3.78;1.10;;;;;;;;;;5041873;28;20075;-63
2023/06/28 14:10:40;;;;;;;4.53;1.10;;;;;;;;;;5056347;28;20523;-64
2023/06/28 14:13:06;;;;;;;3.60;1.00;;;;;;;;;;5050265;28;20021;-62
2023/06/28 14:15:31;;;;;;;4.93;1.10;;;;;;;;;;5054078;28;20039;-63
2023/06/28 14:17:56;;;;;;;4.28;1.10;;;;;;;;;;5054383;28;20021;-63
2023/06/28 14:20:21;;;;;;;4.27;1.10;;;;;;;;;;5053049;28;20029;-62
2023/06/28 14:22:50;;;;;;;4.70;1.10;;;;;;;;;;5056248;28;20029;-62
2023/06/28 14:25:15;;;;;;;4.88;1.30;;;;;;;;;;5060335;28;20017;-63
2023/06/28 14:27:40;;;;;;;6.20;1.27;;;;;;;;;;5050996;28;20017;-63
2023/06/28 14:30:06;;;;;;;6.55;1.23;;;;;;;;;;5056819;28;20460;-63
2023/06/28 14:32:31;;;;;;;4.72;1.20;;;;;;;;;;5055127;28;20017;-63
2023/06/28 14:34:56;;;;;;;4.78;1.05;;;;;;;;;;5056831;28;20522;-63